Time;durP1;ratioP1;P1;durP2;ratioP2;P2;SDS_P1;SDS_P2;PMS_P1;PMS_P2;Temp;Humidity;BMP_temperature;BMP_pressure;BME280_temperature;BME280_humidity;BME280_pressure;Samples;Min_cycle;Max_cycle;Signal;HPM_P1;HPM_P2
2024/02/16 00:00:22;;;;;;;;;;;;;;;-144.99;100.00;67352.69;5056869;28;19913;-82
2024/02/16 00:02:47;;;;;;;;;;;;;;;-144.99;100.00;67352.69;5056766;28;19968;-82
2024/02/16 00:05:13;;;;;;;;;;;;;;;-144.99;100.00;67352.69;5057845;28;19948;-82
2024/02/16 00:07:38;;;;;;;;;;;;;;;-144.99;100.00;67352.69;5057107;28;20276;-82
2024/02/16 00:10:04;;;;;;;;;;;;;;;-144.99;100.00;67352.69;5056174;28;20451;-82
2024/02/16 00:12:31;;;;;;;;;;;;;;;-144.99;100.00;67352.69;5054495;28;19917;-82
2024/02/16 00:14:56;;;;;;;;;;;;;;;-144.99;100.00;67352.69;5055644;28;19916;-82
2024/02/16 00:17:22;;;;;;;;;;;;;;;-144.99;100.00;67352.69;5056628;28;19912;-82
2024/02/16 00:19:47;;;;;;;;;;;;;;;-144.99;100.00;67352.69;5058412;28;19913;-82
2024/02/16 00:22:12;;;;;;;;;;;;;;;-144.99;100.00;67352.69;5058086;28;20027;-82
2024/02/16 00:24:38;;;;;;;;;;;;;;;-144.99;100.00;67352.69;5056013;28;20303;-82
2024/02/16 00:27:05;;;;;;;;;;;;;;;-144.99;100.00;67352.69;5056649;28;19913;-82
2024/02/16 00:29:30;;;;;;;;;;;;;;;-144.99;100.00;67352.69;5057557;28;19943;-82
2024/02/16 00:31:56;;;;;;;;;;;;;;;-144.99;100.00;67352.69;5055514;28;19919;-81
2024/02/16 00:34:21;;;;;;;;;;;;;;;-144.99;100.00;67352.69;5055931;28;19917;-82
2024/02/16 00:36:46;;;;;;;;;;;;;;;-144.99;100.00;67352.69;5056083;28;19990;-82
2024/02/16 00:39:11;;;;;;;;;;;;;;;-144.99;100.00;67352.69;5057297;28;20352;-82
2024/02/16 00:41:37;;;;;;;;;;;;;;;-144.99;100.00;67352.69;5056696;28;19913;-81
2024/02/16 00:44:02;;;;;;;;;;;;;;;-144.99;100.00;67352.69;5054817;28;20000;-82
2024/02/16 00:46:27;;;;;;;;;;;;;;;-144.99;100.00;67352.69;5055782;28;19927;-81
2024/02/16 00:48:53;;;;;;;;;;;;;;;-144.99;100.00;67352.69;5056876;28;19913;-82
2024/02/16 00:51:19;;;;;;;;;;;;;;;-144.99;100.00;67352.69;5055068;28;19962;-82
2024/02/16 00:53:44;;;;;;;;;;;;;;;-144.99;100.00;67352.69;5055705;28;19920;-82
2024/02/16 00:56:09;;;;;;;;;;;;;;;-144.99;100.00;67352.69;5053890;28;20390;-82
2024/02/16 00:58:36;;;;;;;;;;;;;;;-144.99;100.00;67352.69;5056289;28;19916;-82
2024/02/16 01:01:01;;;;;;;;;;;;;;;-144.99;100.00;67352.69;5054818;28;19928;-82
2024/02/16 01:03:26;;;;;;;;;;;;;;;-144.99;100.00;67352.69;5054957;28;19919;-82
2024/02/16 01:05:52;;;;;;;;;;;;;;;-144.99;100.00;67352.69;5055117;28;20413;-81
2024/02/16 01:08:17;;;;;;;;;;;;;;;-144.99;100.00;67352.69;5056461;28;20358;-81
2024/02/16 01:10:42;;;;;;;;;;;;;;;-144.99;100.00;67352.69;5056150;28;20379;-82
2024/02/16 01:13:07;;;;;;;;;;;;;;;-144.99;100.00;67352.69;5054383;28;20197;-81
2024/02/16 01:15:33;;;;;;;;;;;;;;;-144.99;100.00;67352.69;5054685;28;19974;-81
2024/02/16 01:18:00;;;;;;;;;;;;;;;-144.99;100.00;67352.69;5048304;28;20295;-81
2024/02/16 01:20:25;;;;;;;;;;;;;;;-144.99;100.00;67352.69;5056175;28;20574;-81
2024/02/16 01:22:50;;;;;;;;;;;;;;;-144.99;100.00;67352.69;5053825;28;20391;-80
2024/02/16 01:25:15;;;;;;;;;;;;;;;-144.99;100.00;67352.69;5050392;28;19921;-81
2024/02/16 01:27:40;;;;;;;;;;;;;;;-144.99;100.00;67352.69;5051666;28;19916;-81
2024/02/16 01:30:06;;;;;;;;;;;;;;;-144.99;100.00;67352.69;5053605;28;19974;-81
2024/02/16 01:32:31;;;;;;;;;;;;;;;-144.99;100.00;67352.69;5054143;28;19913;-81
2024/02/16 01:34:57;;;;;;;;;;;;;;;-144.99;100.00;67352.69;5049988;28;19919;-80
2024/02/16 01:37:23;;;;;;;;;;;;;;;-144.99;100.00;67352.69;5051307;28;20294;-80
2024/02/16 01:39:48;;;;;;;;;;;;;;;-144.99;100.00;67352.69;5052594;28;20000;-81
2024/02/16 01:42:13;;;;;;;;;;;;;;;-144.99;100.00;67352.69;5053760;28;19928;-81
2024/02/16 01:44:38;;;;;;;;;;;;;;;-144.99;100.00;67352.69;5054296;28;19913;-80
2024/02/16 01:47:04;;;;;;;;;;;;;;;-144.99;100.00;67352.69;5055519;28;20322;-81
2024/02/16 01:49:29;;;;;;;;;;;;;;;-144.99;100.00;67352.69;5056440;28;19913;-81
2024/02/16 01:51:54;;;;;;;;;;;;;;;-144.99;100.00;67352.69;5053735;28;19943;-81
2024/02/16 01:54:19;;;;;;;;;;;;;;;-144.99;100.00;67352.69;5056179;28;19971;-81
2024/02/16 01:56:45;;;;;;;;;;;;;;;-144.99;100.00;67352.69;5055251;28;20062;-80
2024/02/16 01:59:10;;;;;;;;;;;;;;;-144.99;100.00;67352.69;5054840;28;20011;-80
2024/02/16 02:01:35;;;;;;;;;;;;;;;-144.99;100.00;67352.69;5053050;28;19913;-80
2024/02/16 02:04:01;;;;;;;;;;;;;;;-144.99;100.00;67352.69;5050629;28;19974;-80
2024/02/16 02:06:26;;;;;;;;;;;;;;;-144.99;100.00;67352.69;5052002;28;20011;-80
2024/02/16 02:08:52;;;;;;;;;;;;;;;-144.99;100.00;67352.69;5053187;28;19917;-81
2024/02/16 02:11:17;;;;;;;;;;;;;;;-144.99;100.00;67352.69;5051799;28;19913;-80
2024/02/16 02:13:42;;;;;;;;;;;;;;;-144.99;100.00;67352.69;5051796;28;19912;-81
2024/02/16 02:16:09;;;;;;;;;;;;;;;-144.99;100.00;67352.69;5052206;28;19913;-81
2024/02/16 02:18:34;;;;;;;;;;;;;;;-144.99;100.00;67352.69;5053203;28;19913;-81
2024/02/16 02:21:00;;;;;;;;;;;;;;;-144.99;100.00;67352.69;5052849;28;19966;-80
2024/02/16 02:23:25;;;;;;;;;;;;;;;-144.99;100.00;67352.69;5051507;28;19913;-81
2024/02/16 02:25:50;;;;;;;;;;;;;;;-144.99;100.00;67352.69;5050752;28;19921;-81
2024/02/16 02:28:16;;;;;;;;;;;;;;;-144.99;100.00;67352.69;5052875;28;19912;-81
2024/02/16 02:30:41;;;;;;;;;;;;;;;-144.99;100.00;67352.69;5052502;28;19916;-81
2024/02/16 02:33:06;;;;;;;;;;;;;;;-144.99;100.00;67352.69;5052740;28;19913;-81
2024/02/16 02:35:32;;;;;;;;;;;;;;;-144.99;100.00;67352.69;5052595;28;19982;-81
2024/02/16 02:37:57;;;;;;;;;;;;;;;-144.99;100.00;67352.69;5052804;28;20195;-81
2024/02/16 02:40:22;;;;;;;;;;;;;;;-144.99;100.00;67352.69;5052535;28;19913;-81
2024/02/16 02:42:47;;;;;;;;;;;;;;;-144.99;100.00;67352.69;5044650;28;19924;-81
2024/02/16 02:45:13;;;;;;;;;;;;;;;-144.99;100.00;67352.69;5051602;28;19920;-82
2024/02/16 02:47:38;;;;;;;;;;;;;;;-144.99;100.00;67352.69;5050892;28;19939;-81
2024/02/16 02:50:04;;;;;;;;;;;;;;;-144.99;100.00;67352.69;5053140;28;19912;-81
2024/02/16 02:52:29;;;;;;;;;;;;;;;-144.99;100.00;67352.69;5052013;28;19913;-81
2024/02/16 02:54:54;;;;;;;;;;;;;;;-144.99;100.00;67352.69;5051768;28;19913;-81
2024/02/16 02:57:20;;;;;;;;;;;;;;;-144.99;100.00;67352.69;5052377;28;19913;-81
2024/02/16 02:59:45;;;;;;;;;;;;;;;-144.99;100.00;67352.69;5052241;28;20373;-81
2024/02/16 03:02:10;;;;;;;;;;;;;;;-144.99;100.00;67352.69;5052398;28;19917;-81
2024/02/16 03:04:35;;;;;;;;;;;;;;;-144.99;100.00;67352.69;5051027;28;20004;-80
2024/02/16 03:07:01;;;;;;;;;;;;;;;-144.99;100.00;67352.69;5050986;28;19944;-81
2024/02/16 03:09:26;;;;;;;;;;;;;;;-144.99;100.00;67352.69;5051096;28;20684;-81
2024/02/16 03:11:51;;;;;;;;;;;;;;;-144.99;100.00;67352.69;5050579;28;19970;-81
2024/02/16 03:14:17;;;;;;;;;;;;;;;-144.99;100.00;67352.69;5050617;28;20038;-80
2024/02/16 03:16:42;;;;;;;;;;;;;;;-144.99;100.00;67352.69;5050820;28;19914;-81
2024/02/16 03:19:10;;;;;;;;;;;;;;;-144.99;100.00;67352.69;5052273;28;19919;-81
2024/02/16 03:21:36;;;;;;;;;;;;;;;-144.99;100.00;67352.69;5051927;28;19913;-81
2024/02/16 03:24:01;;;;;;;;;;;;;;;-144.99;100.00;67352.69;5050419;28;19920;-81
2024/02/16 03:26:26;;;;;;;;;;;;;;;-144.99;100.00;67352.69;5050174;28;19924;-81
2024/02/16 03:28:52;;;;;;;;;;;;;;;-144.99;100.00;67352.69;5051895;28;19971;-80
2024/02/16 03:31:18;;;;;;;;;;;;;;;-144.99;100.00;67352.69;5051811;28;19913;-81
2024/02/16 03:33:43;;;;;;;;;;;;;;;-144.99;100.00;67352.69;5050493;28;19917;-81
2024/02/16 03:36:09;;;;;;;;;;;;;;;-144.99;100.00;67352.69;5051142;28;19961;-81
2024/02/16 03:38:34;;;;;;;;;;;;;;;-144.99;100.00;67352.69;5051669;28;19963;-80
2024/02/16 03:40:59;;;;;;;;;;;;;;;-144.99;100.00;67352.69;5050673;28;20626;-81
2024/02/16 03:43:24;;;;;;;;;;;;;;;-144.99;100.00;67352.69;5051703;28;19996;-80
2024/02/16 03:45:50;;;;;;;;;;;;;;;-144.99;100.00;67352.69;5048609;28;19917;-80
2024/02/16 03:48:15;;;;;;;;;;;;;;;-144.99;100.00;67352.69;5051856;28;19966;-81
2024/02/16 03:50:41;;;;;;;;;;;;;;;-144.99;100.00;67352.69;5050119;28;19917;-81
2024/02/16 03:53:06;;;;;;;;;;;;;;;-144.99;100.00;67352.69;5050168;28;19913;-81
2024/02/16 03:55:36;;;;;;;;;;;;;;;-144.99;100.00;67352.69;5051539;28;19923;-80
2024/02/16 03:58:02;;;;;;;;;;;;;;;-144.99;100.00;67352.69;5048966;28;19916;-81
2024/02/16 04:00:27;;;;;;;;;;;;;;;-144.99;100.00;67352.69;5051362;28;19936;-81
2024/02/16 04:02:52;;;;;;;;;;;;;;;-144.99;100.00;67352.69;5051576;28;20306;-81
2024/02/16 04:05:18;;;;;;;;;;;;;;;-144.99;100.00;67352.69;5050250;28;20011;-81
2024/02/16 04:07:43;;;;;;;;;;;;;;;-144.99;100.00;67352.69;5050782;28;20276;-81
2024/02/16 04:10:08;;;;;;;;;;;;;;;-144.99;100.00;67352.69;5050083;28;20364;-81
2024/02/16 04:12:33;;;;;;;;;;;;;;;-144.99;100.00;67352.69;5050476;28;19917;-81
2024/02/16 04:14:59;;;;;;;;;;;;;;;-144.99;100.00;67352.69;5049753;28;19966;-81
2024/02/16 04:17:24;;;;;;;;;;;;;;;-144.99;100.00;67352.69;5049294;28;19948;-81
2024/02/16 04:19:49;;;;;;;;;;;;;;;-144.99;100.00;67352.69;5051451;28;19917;-81
2024/02/16 04:22:14;;;;;;;;;;;;;;;-144.99;100.00;67352.69;5049986;28;19920;-81
2024/02/16 04:24:40;;;;;;;;;;;;;;;-144.99;100.00;67352.69;5051512;28;20402;-81
2024/02/16 04:27:05;;;;;;;;;;;;;;;-144.99;100.00;67352.69;5050277;28;20003;-80
2024/02/16 04:29:30;;;;;;;;;;;;;;;-144.99;100.00;67352.69;5050035;28;19923;-80
2024/02/16 04:31:55;;;;;;;;;;;;;;;-144.99;100.00;67352.69;5049916;28;19912;-81
2024/02/16 04:34:21;;;;;;;;;;;;;;;-144.99;100.00;67352.69;5050681;28;19920;-81
2024/02/16 04:36:46;;;;;;;;;;;;;;;-144.99;100.00;67352.69;5054524;28;19913;-81
2024/02/16 04:39:14;;;;;;;;;;;;;;;-144.99;100.00;67352.69;5056799;28;19999;-81
2024/02/16 04:41:39;;;;;;;;;;;;;;;-144.99;100.00;67352.69;5056602;28;20291;-81
2024/02/16 04:44:05;;;;;;;;;;;;;;;-144.99;100.00;67352.69;5057045;28;19913;-81
2024/02/16 04:46:30;;;;;;;;;;;;;;;-144.99;100.00;67352.69;5057239;28;20012;-81
2024/02/16 04:48:55;;;;;;;;;;;;;;;-144.99;100.00;67352.69;5056645;28;19913;-81
2024/02/16 04:51:20;;;;;;;;;;;;;;;-144.99;100.00;67352.69;5058524;28;19916;-80
2024/02/16 04:53:45;;;;;;;;;;;;;;;-144.99;100.00;67352.69;5056503;28;19912;-81
2024/02/16 04:56:11;;;;;;;;;;;;;;;-144.99;100.00;67352.69;5057341;28;19917;-81
2024/02/16 04:58:39;;;;;;;;;;;;;;;-144.99;100.00;67352.69;5055622;28;19928;-81
2024/02/16 05:01:06;;;;;;;;;;;;;;;-144.99;100.00;67352.69;5056977;28;19984;-82
2024/02/16 05:03:32;;;;;;;;;;;;;;;-144.99;100.00;67352.69;5056933;28;20310;-81
2024/02/16 05:05:57;;;;;;;;;;;;;;;-144.99;100.00;67352.69;5055735;28;19920;-81
2024/02/16 05:08:22;;;;;;;;;;;;;;;-144.99;100.00;67352.69;5056609;28;19913;-80
2024/02/16 05:10:47;;;;;;;;;;;;;;;-144.99;100.00;67352.69;5056222;28;20000;-81
2024/02/16 05:13:14;;;;;;;;;;;;;;;-144.99;100.00;67352.69;5051417;28;20020;-81
2024/02/16 05:15:39;;;;;;;;;;;;;;;-144.99;100.00;67352.69;5056623;28;19913;-81
2024/02/16 05:18:04;;;;;;;;;;;;;;;-144.99;100.00;67352.69;5055032;28;19920;-81
2024/02/16 05:20:29;;;;;;;;;;;;;;;-144.99;100.00;67352.69;5054299;28;19919;-81
2024/02/16 05:22:55;;;;;;;;;;;;;;;-144.99;100.00;67352.69;5055261;28;19912;-81
2024/02/16 05:25:20;;;;;;;;;;;;;;;-144.99;100.00;67352.69;5053125;28;19956;-80
2024/02/16 05:27:47;;;;;;;;;;;;;;;-144.99;100.00;67352.69;5048503;28;20264;-80
2024/02/16 05:30:15;;;;;;;;;;;;;;;-144.99;100.00;67352.69;5051591;28;19916;-80
2024/02/16 05:32:41;;;;;;;;;;;;;;;-144.99;100.00;67352.69;5050506;28;19913;-80
2024/02/16 05:35:17;;;;;;;;;;;;;;;-144.99;100.00;67352.69;5050030;28;19943;-80
2024/02/16 05:37:51;;;;;;;;;;;;;;;-144.99;100.00;67352.69;5051495;28;19956;-80
2024/02/16 05:40:24;;;;;;;;;;;;;;;-144.99;100.00;67352.69;5052292;28;19913;-81
2024/02/16 05:42:51;;;;;;;;;;;;;;;-144.99;100.00;67352.69;5052362;28;20383;-80
2024/02/16 05:45:16;;;;;;;;;;;;;;;-144.99;100.00;67352.69;5052376;28;19917;-80
2024/02/16 05:47:43;;;;;;;;;;;;;;;-144.99;100.00;67352.69;5051748;28;19917;-80
2024/02/16 05:50:08;;;;;;;;;;;;;;;-144.99;100.00;67352.69;5052077;28;20402;-80
2024/02/16 05:52:34;;;;;;;;;;;;;;;-144.99;100.00;67352.69;5053707;28;19912;-80
2024/02/16 05:54:59;;;;;;;;;;;;;;;-144.99;100.00;67352.69;5052012;28;19913;-80
2024/02/16 05:57:24;;;;;;;;;;;;;;;-144.99;100.00;67352.69;5050912;28;20339;-81
2024/02/16 05:59:51;;;;;;;;;;;;;;;-144.99;100.00;67352.69;5053971;28;19913;-81
2024/02/16 06:02:17;;;;;;;;;;;;;;;-144.99;100.00;67352.69;5051591;28;19917;-81
2024/02/16 06:04:42;;;;;;;;;;;;;;;-144.99;100.00;67352.69;5053062;28;19919;-81
2024/02/16 06:07:08;;;;;;;;;;;;;;;-144.99;100.00;67352.69;5052174;28;19916;-81
2024/02/16 06:09:34;;;;;;;;;;;;;;;-144.99;100.00;67352.69;5051951;28;19913;-80
2024/02/16 06:12:00;;;;;;;;;;;;;;;-144.99;100.00;67352.69;5052984;28;19913;-80
2024/02/16 06:14:26;;;;;;;;;;;;;;;-144.99;100.00;67352.69;5053032;28;19999;-80
2024/02/16 06:16:51;;;;;;;;;;;;;;;-144.99;100.00;67352.69;5050453;28;19995;-80
2024/02/16 06:19:16;;;;;;;;;;;;;;;-144.99;100.00;67352.69;5051897;28;19913;-80
2024/02/16 06:21:41;;;;;;;;;;;;;;;-144.99;100.00;67352.69;5051593;28;19917;-80
2024/02/16 06:24:07;;;;;;;;;;;;;;;-144.99;100.00;67352.69;5052830;28;19913;-81
2024/02/16 06:26:32;;;;;;;;;;;;;;;-144.99;100.00;67352.69;5051727;28;19921;-81
2024/02/16 06:28:58;;;;;;;;;;;;;;;-144.99;100.00;67352.69;5051560;28;19917;-81
2024/02/16 06:31:23;;;;;;;;;;;;;;;-144.99;100.00;67352.69;5051459;28;20003;-81
2024/02/16 06:33:48;;;;;;;;;;;;;;;-144.99;100.00;67352.69;5051369;28;19913;-81
2024/02/16 06:36:13;;;;;;;;;;;;;;;-144.99;100.00;67352.69;5051655;28;20345;-80
2024/02/16 06:38:39;;;;;;;;;;;;;;;-144.99;100.00;67352.69;5051572;28;19962;-81
2024/02/16 06:41:04;;;;;;;;;;;;;;;-144.99;100.00;67352.69;5052133;28;19966;-81
2024/02/16 06:43:29;;;;;;;;;;;;;;;-144.99;100.00;67352.69;5052613;28;20012;-81
2024/02/16 06:45:56;;;;;;;;;;;;;;;-144.99;100.00;67352.69;5050986;28;20003;-81
2024/02/16 06:48:21;;;;;;;;;;;;;;;-144.99;100.00;67352.69;5052533;28;20387;-81
2024/02/16 06:50:47;;;;;;;;;;;;;;;-144.99;100.00;67352.69;5051907;28;19920;-81
2024/02/16 06:53:12;;;;;;;;;;;;;;;-144.99;100.00;67352.69;5051115;28;19913;-80
2024/02/16 06:55:37;;;;;;;;;;;;;;;-144.99;100.00;67352.69;5052968;28;20379;-81
2024/02/16 06:58:02;;;;;;;;;;;;;;;-144.99;100.00;67352.69;5050166;28;19920;-81
2024/02/16 07:00:28;;;;;;;;;;;;;;;-144.99;100.00;67352.69;5051872;28;19913;-80
2024/02/16 07:02:54;;;;;;;;;;;;;;;-144.99;100.00;67352.69;5050779;28;20409;-80
2024/02/16 07:05:19;;;;;;;;;;;;;;;-144.99;100.00;67352.69;5051180;28;19917;-81
2024/02/16 07:07:44;;;;;;;;;;;;;;;-144.99;100.00;67352.69;5050012;28;19948;-80
2024/02/16 07:10:13;;;;;;;;;;;;;;;-144.99;100.00;67352.69;5052326;28;19913;-81
2024/02/16 07:12:38;;;;;;;;;;;;;;;-144.99;100.00;67352.69;5051153;28;19913;-80
2024/02/16 07:15:04;;;;;;;;;;;;;;;-144.99;100.00;67352.69;5050333;28;19913;-80
2024/02/16 07:17:29;;;;;;;;;;;;;;;-144.99;100.00;67352.69;5051302;28;20024;-81
2024/02/16 07:19:54;;;;;;;;;;;;;;;-144.99;100.00;67352.69;5051663;28;19912;-81
2024/02/16 07:22:19;;;;;;;;;;;;;;;-144.99;100.00;67352.69;5050963;28;19952;-81
2024/02/16 07:24:44;;;;;;;;;;;;;;;-144.99;100.00;67352.69;5054237;28;19913;-81
2024/02/16 07:27:10;;;;;;;;;;;;;;;-144.99;100.00;67352.69;5055563;28;19927;-81
2024/02/16 07:29:38;;;;;;;;;;;;;;;-144.99;100.00;67352.69;5056157;28;19962;-81
2024/02/16 07:32:03;;;;;;;;;;;;;;;-144.99;100.00;67352.69;5055269;28;19912;-81
2024/02/16 07:34:28;;;;;;;;;;;;;;;-144.99;100.00;67352.69;5056360;28;19913;-81
2024/02/16 07:36:54;;;;;;;;;;;;;;;-144.99;100.00;67352.69;5053945;28;19917;-81
2024/02/16 07:39:22;;;;;;;;;;;;;;;-144.99;100.00;67352.69;5055151;28;19935;-81
2024/02/16 07:41:47;;;;;;;;;;;;;;;-144.99;100.00;67352.69;5048496;28;20012;-82
2024/02/16 07:44:12;;;;;;;;;;;;;;;-144.99;100.00;67352.69;5053471;28;20078;-81
2024/02/16 07:46:41;;;;;;;;;;;;;;;-144.99;100.00;67352.69;5052708;28;19921;-81
2024/02/16 07:49:06;;;;;;;;;;;;;;;-144.99;100.00;67352.69;5046075;28;19920;-81
2024/02/16 07:51:32;;;;;;;;;;;;;;;-144.99;100.00;67352.69;5053071;28;20321;-81
2024/02/16 07:53:57;;;;;;;;;;;;;;;-144.99;100.00;67352.69;5051754;28;19923;-81
2024/02/16 07:56:22;;;;;;;;;;;;;;;-144.99;100.00;67352.69;5051355;28;19912;-81
2024/02/16 07:58:47;;;;;;;;;;;;;;;-144.99;100.00;67352.69;5050769;28;20429;-81
2024/02/16 08:01:15;;;;;;;;;;;;;;;-144.99;100.00;67352.69;5053038;28;19978;-81
2024/02/16 08:03:40;;;;;;;;;;;;;;;-144.99;100.00;67352.69;5053565;28;19913;-81
2024/02/16 08:06:06;;;;;;;;;;;;;;;-144.99;100.00;67352.69;5051636;28;19928;-81
2024/02/16 08:08:31;;;;;;;;;;;;;;;-144.99;100.00;67352.69;5054820;28;19995;-81
2024/02/16 08:10:56;;;;;;;;;;;;;;;-144.99;100.00;67352.69;5053641;28;20398;-81
2024/02/16 08:13:21;;;;;;;;;;;;;;;-144.99;100.00;67352.69;5057809;28;19920;-81
2024/02/16 08:15:47;;;;;;;;;;;;;;;-144.99;100.00;67352.69;5057532;28;19913;-80
2024/02/16 08:18:12;;;;;;;;;;;;;;;-144.99;100.00;67352.69;5057056;28;19944;-81
2024/02/16 08:20:38;;;;;;;;;;;;;;;-144.99;100.00;67352.69;5056939;28;19913;-80
2024/02/16 08:23:04;;;;;;;;;;;;;;;-144.99;100.00;67352.69;5055996;28;19958;-81
2024/02/16 08:25:30;;;;;;;;;;;;;;;-144.99;100.00;67352.69;5057149;28;20375;-81
2024/02/16 08:27:55;;;;;;;;;;;;;;;-144.99;100.00;67352.69;5055051;28;19913;-80
2024/02/16 08:30:20;;;;;;;;;;;;;;;-144.99;100.00;67352.69;5057218;28;19923;-81
2024/02/16 08:32:46;;;;;;;;;;;;;;;-144.99;100.00;67352.69;5056500;28;19913;-81
2024/02/16 08:35:14;;;;;;;;;;;;;;;-144.99;100.00;67352.69;5054817;28;19999;-81
2024/02/16 08:37:39;;;;;;;;;;;;;;;-144.99;100.00;67352.69;5054982;28;19924;-80
2024/02/16 08:40:04;;;;;;;;;;;;;;;-144.99;100.00;67352.69;5055776;28;19913;-81
2024/02/16 08:42:31;;;;;;;;;;;;;;;-144.99;100.00;67352.69;5056648;28;19920;-80
2024/02/16 08:44:58;;;;;;;;;;;;;;;-144.99;100.00;67352.69;5055549;28;19935;-81
2024/02/16 08:47:23;;;;;;;;;;;;;;;-144.99;100.00;67352.69;5055699;28;19913;-81
2024/02/16 08:49:48;;;;;;;;;;;;;;;-144.99;100.00;67352.69;5054308;28;19913;-81
2024/02/16 08:52:14;;;;;;;;;;;;;;;-144.99;100.00;67352.69;5053901;28;19912;-80
2024/02/16 08:54:39;;;;;;;;;;;;;;;-144.99;100.00;67352.69;5053450;28;19917;-83
2024/02/16 08:57:05;;;;;;;;;;;;;;;-144.99;100.00;67352.69;5053585;28;20063;-80
2024/02/16 08:59:30;;;;;;;;;;;;;;;-144.99;100.00;67352.69;5055842;28;20459;-81
2024/02/16 09:01:56;;;;;;;;;;;;;;;-144.99;100.00;67352.69;5054128;28;19959;-81
2024/02/16 09:04:21;;;;;;;;;;;;;;;-144.99;100.00;67352.69;5053317;28;19916;-82
2024/02/16 09:06:47;;;;;;;;;;;;;;;-144.99;100.00;67352.69;5053293;28;19999;-83
2024/02/16 09:09:12;;;;;;;;;;;;;;;-144.99;100.00;67352.69;5054986;28;20290;-79
2024/02/16 09:11:37;;;;;;;;;;;;;;;-144.99;100.00;67352.69;5054599;28;19912;-79
2024/02/16 09:14:03;;;;;;;;;;;;;;;-144.99;100.00;67352.69;5054691;28;19928;-79
2024/02/16 09:16:28;;;;;;;;;;;;;;;-144.99;100.00;67352.69;5052224;28;19917;-79
2024/02/16 09:18:53;;;;;;;;;;;;;;;-144.99;100.00;67352.69;5053102;28;19912;-79
2024/02/16 09:21:19;;;;;;;;;;;;;;;-144.99;100.00;67352.69;5054158;28;19935;-79
2024/02/16 09:23:45;;;;;;;;;;;;;;;-144.99;100.00;67352.69;5053966;28;20402;-79
2024/02/16 09:26:10;;;;;;;;;;;;;;;-144.99;100.00;67352.69;5051872;28;20395;-79
2024/02/16 09:28:38;;;;;;;;;;;;;;;-144.99;100.00;67352.69;5054209;28;19916;-78
2024/02/16 09:31:04;;;;;;;;;;;;;;;-144.99;100.00;67352.69;5042357;28;20019;-79
2024/02/16 09:33:29;;;;;;;;;;;;;;;-144.99;100.00;67352.69;5048097;28;20011;-80
2024/02/16 09:35:54;;;;;;;;;;;;;;;-144.99;100.00;67352.69;5050957;28;20356;-81
2024/02/16 09:38:20;;;;;;;;;;;;;;;-144.99;100.00;67352.69;5054141;28;19913;-81
2024/02/16 09:40:45;;;;;;;;;;;;;;;-144.99;100.00;67352.69;5052453;28;20171;-81
2024/02/16 09:43:11;;;;;;;;;;;;;;;-144.99;100.00;67352.69;5052507;28;20406;-81
2024/02/16 09:45:37;;;;;;;;;;;;;;;-144.99;100.00;67352.69;5048407;28;19921;-81
2024/02/16 09:48:04;;;;;;;;;;;;;;;-144.99;100.00;67352.69;5051144;28;19962;-81
2024/02/16 09:50:29;;;;;;;;;;;;;;;-144.99;100.00;67352.69;5051573;28;19964;-81
2024/02/16 09:52:56;;;;;;;;;;;;;;;-144.99;100.00;67352.69;5052264;28;19963;-81
2024/02/16 09:55:22;;;;;;;;;;;;;;;-144.99;100.00;67352.69;5052322;28;19920;-81
2024/02/16 09:57:47;;;;;;;;;;;;;;;-144.99;100.00;67352.69;5051483;28;20326;-82
2024/02/16 10:00:13;;;;;;;;;;;;;;;-144.99;100.00;67352.69;5053673;28;19958;-81
2024/02/16 10:02:48;;;;;;;;;;;;;;;-144.99;100.00;67352.69;5052404;28;19916;-82
2024/02/16 10:05:14;;;;;;;;;;;;;;;-144.99;100.00;67352.69;5044808;28;19920;-81
2024/02/16 10:07:40;;;;;;;;;;;;;;;-144.99;100.00;67352.69;5052433;28;19982;-81
2024/02/16 10:10:05;;;;;;;;;;;;;;;-144.99;100.00;67352.69;5053490;28;19913;-81
2024/02/16 10:12:30;;;;;;;;;;;;;;;-144.99;100.00;67352.69;5055359;28;20387;-82
2024/02/16 10:14:56;;;;;;;;;;;;;;;-144.99;100.00;67352.69;5056934;28;20388;-82
2024/02/16 10:17:21;;;;;;;;;;;;;;;-144.99;100.00;67352.69;5056392;28;19966;-82
2024/02/16 10:19:55;;;;;;;;;;;;;;;-144.99;100.00;67352.69;5059340;28;19913;-82
2024/02/16 10:22:22;;;;;;;;;;;;;;;-144.99;100.00;67352.69;5057615;28;19948;-82
2024/02/16 10:24:48;;;;;;;;;;;;;;;-144.99;100.00;67352.69;5057985;28;19919;-82
2024/02/16 10:27:13;;;;;;;;;;;;;;;-144.99;100.00;67352.69;5056288;28;19917;-82
2024/02/16 10:29:39;;;;;;;;;;;;;;;-144.99;100.00;67352.69;5052999;28;20004;-81
2024/02/16 10:32:05;;;;;;;;;;;;;;;-144.99;100.00;67352.69;5052502;28;19912;-81
2024/02/16 10:34:32;;;;;;;;;;;;;;;-144.99;100.00;67352.69;5050780;28;19920;-81
2024/02/16 10:36:59;;;;;;;;;;;;;;;-144.99;100.00;67352.69;5050627;28;19917;-80
2024/02/16 10:39:24;;;;;;;;;;;;;;;-144.99;100.00;67352.69;5051294;28;19913;-81
2024/02/16 10:41:50;;;;;;;;;;;;;;;-144.99;100.00;67352.69;5050817;28;19939;-81
2024/02/16 10:44:16;;;;;;;;;;;;;;;-144.99;100.00;67352.69;5052819;28;19999;-81
2024/02/16 10:46:41;;;;;;;;;;;;;;;-144.99;100.00;67352.69;5051275;28;20015;-81
2024/02/16 10:49:06;;;;;;;;;;;;;;;-144.99;100.00;67352.69;5052355;28;19919;-81
2024/02/16 10:51:46;;;;;;;;;;;;;;;-144.99;100.00;67352.69;5051828;28;20352;-80
2024/02/16 10:54:14;;;;;;;;;;;;;;;-144.99;100.00;67352.69;5054239;28;20405;-80
2024/02/16 10:56:40;;;;;;;;;;;;;;;-144.99;100.00;67352.69;5053274;28;20349;-79
2024/02/16 10:59:07;;;;;;;;;;;;;;;-144.99;100.00;67352.69;5054658;28;20440;-79
2024/02/16 11:01:42;;;;;;;;;;;;;;;-144.99;100.00;67352.69;5054351;28;19917;-79
2024/02/16 11:04:08;;;;;;;;;;;;;;;-144.99;100.00;67352.69;5053235;28;19967;-81
2024/02/16 11:06:44;;;;;;;;;;;;;;;-144.99;100.00;67352.69;5050472;28;20002;-81
2024/02/16 11:09:10;;;;;;;;;;;;;;;-144.99;100.00;67352.69;5052865;28;19923;-81
2024/02/16 11:11:36;;;;;;;;;;;;;;;-144.99;100.00;67352.69;5051067;28;19917;-81
2024/02/16 11:14:02;;;;;;;;;;;;;;;-144.99;100.00;67352.69;5052360;28;19920;-78
2024/02/16 11:16:27;;;;;;;;;;;;;;;-144.99;100.00;67352.69;5050333;28;19956;-81
2024/02/16 11:18:52;;;;;;;;;;;;;;;-144.99;100.00;67352.69;5052614;28;19936;-81
2024/02/16 11:21:18;;;;;;;;;;;;;;;-144.99;100.00;67352.69;5051146;28;20022;-79
2024/02/16 11:23:44;;;;;;;;;;;;;;;-144.99;100.00;67352.69;5054384;28;19917;-79
2024/02/16 11:26:11;;;;;;;;;;;;;;;-144.99;100.00;67352.69;5052482;28;20306;-81
2024/02/16 11:28:36;;;;;;;;;;;;;;;-144.99;100.00;67352.69;5052035;28;19940;-81
2024/02/16 11:31:02;;;;;;;;;;;;;;;-144.99;100.00;67352.69;5051029;28;20371;-81
2024/02/16 11:33:28;;;;;;;;;;;;;;;-144.99;100.00;67352.69;5051996;28;20307;-81
2024/02/16 11:36:00;;;;;;;;;;;;;;;-144.99;100.00;67352.69;5049931;28;20294;-81
2024/02/16 11:38:26;;;;;;;;;;;;;;;-144.99;100.00;67352.69;5052450;28;19980;-81
2024/02/16 11:40:58;;;;;;;;;;;;;;;-144.99;100.00;67352.69;5051039;28;19951;-81
2024/02/16 11:43:24;;;;;;;;;;;;;;;-144.99;100.00;67352.69;5051905;28;19920;-81
2024/02/16 11:45:50;;;;;;;;;;;;;;;-144.99;100.00;67352.69;5048922;28;19917;-81
2024/02/16 11:48:22;;;;;;;;;;;;;;;-144.99;100.00;67352.69;5051852;28;19962;-81
2024/02/16 11:50:47;;;;;;;;;;;;;;;-144.99;100.00;67352.69;5053033;28;19956;-82
2024/02/16 11:53:17;;;;;;;;;;;;;;;-144.99;100.00;67352.69;5054268;28;19966;-81
2024/02/16 11:55:46;;;;;;;;;;;;;;;-144.99;100.00;67352.69;5052381;28;19921;-81
2024/02/16 11:58:11;;;;;;;;;;;;;;;-144.99;100.00;67352.69;5041924;28;20341;-82
2024/02/16 12:00:37;;;;;;;;;;;;;;;-144.99;100.00;67352.69;5051526;28;19999;-81
2024/02/16 12:03:02;;;;;;;;;;;;;;;-144.99;100.00;67352.69;5049611;28;20368;-78
2024/02/16 12:05:27;;;;;;;;;;;;;;;-144.99;100.00;67352.69;5051368;28;20008;-80
2024/02/16 12:07:53;;;;;;;;;;;;;;;-144.99;100.00;67352.69;5035318;28;20008;-80
2024/02/16 12:10:18;;;;;;;;;;;;;;;-144.99;100.00;67352.69;5045168;28;19924;-80